You are here

Stations

Station Name Date Time Temperature Relative Humidity Precipitation Wind Speed Wind Direction Create Custom Report Daily Report Hourly Report
A&O Farm 2021-27-10 13:45 69.4 63.47 0.00 11.39 SE
Aberdeen VTcr 2021-27-10 13:45 73.0 51.11 0.00 7.83 ESE
Beaumont Exp Stn 2021-27-10 13:45 78.1 63.01 0.00 6.68 SE
Bee Lake 2021-27-10 13:45 71.3 55.48 0.00 3.21 SSE
Brooksville 2021-27-10 13:45 71.7 46.58 0.00 8.28 SSE
Brooksville2 VTso 2021-27-10 13:45 71.8 48.71 0.00
Brown Loam Exp. Stn. 2021-27-10 13:45 68.1 78.12 0.01 8.96 SE
Clarksdale VTso 2021-27-10 13:44
Cleveland 2021-27-10 13:45 73.0 46.72 0.00 13.74 SE
Coastal Res & Ext Cnt 2021-27-10 13:45 77.4 80.00 0.00 2.81 SE
COOP Stoneville 2021-27-10 8:00 60.0 79 0.00
Cooper Farm 2021-27-10 13:45 71.5 65.80 0.00 9.53 ESE
Crystal Sprgs Exp Stn 2021-27-10 13:45 70.1 77.04 0.00 9.16 ESE
Crystal Springs VTso 2021-27-10 13:45 71.7 69.46 0.00 3.47 SE
Home Cypress Farm 2021-27-10 13:45 72.8 51.35 0.00 10.77 ESE
Lancaster 2021-27-10 13:45 71.8 48.52 0.00 7.45 SE
Longwood VTso 2021-27-10 13:45 73.4 51.73 0.00 12.56 SE
Lyon 2021-27-10 13:45 70.3 54.29 0.00 6.18 SSE
Macon VTcr 2021-27-10 13:45 72.7 45.40 0.00 5.35 ESE
Mantee VT 2021-27-10 13:45 75.3 54.13 0.00 0.04 NE
Money 2021-27-10 13:45 72.6 46.92 0.00 10.44 ESE
Mound Bayou 2021-27-10 13:45 73.0 50.63 0.00 8.47 SE
MSU North Farm Starkv 2021-27-10 13:45 70.8 52.22 0.00 8.16 SE
Natchez 2021-27-10 13:45 76.2 81.20 0.00 6.92 ESE
Olive Branch VTcr 2021-27-10 13:45 72.0 46.35 0.00 5.51 ESE
Olive Branch2 VTso 2021-27-10 13:45 71.4 55.30 0.00
Onward VT 2021-27-10 13:45 71.3 72.02 0.00
Pontotoc AWS COOP 2021-27-10 13:44
Pontotoc Exp Stn 2021-27-10 13:45 70.1 52.24 0.00 7.30 NNW
Port Gibson 2021-27-10 13:45 72.4 72.64 0.00 9.87 ESE
Prairie 2021-27-10 13:45 70.2 61.98 0.00 6.63 SSE
Senatobia 2021-27-10 13:45 71.2 54.62 0.00 8.32 ESE
Sidon 2021-27-10 13:45 71.5 59.73 0.00 14.69 ESE
Stoneville AWS 2021-27-10 13:45 71.0 51.17 0.00 10.88 ESE
Stoneville F10 2021-27-10 13:45 71.1 0.44 0.00 10.33 E
Stoneville F17 VT 2021-27-10 13:45 71.9 50.50 0.00
Stoneville F7 VT 2021-27-10 13:45 72.6 51.23 0.00
Stoneville W 2021-27-10 13:45 72.0 50.82 0.00 11.21 ESE
Stoneville_F8 2021-27-10 13:45 71.6 50.95 0.00 5.98 E
Stoneville_SW 2021-27-10 13:45 72.2 49.79 0.00 6.49 SE
Thighman 2021-27-10 13:45 71.1 54.58 0.00 6.66 SSE
Tippo VT 2021-27-10 13:45 72.8 54.65 0.00
Tribbett 2021-27-10 13:45 71.9 51.89 0.00 10.01 ESE
Tunica 2021-27-10 13:45 71.6 53.01 0.00 10.40 ESE
Verona 2021-27-10 13:45 71.8 45.17 0.00 7.47 E
Verona VTso 2021-27-10 13:45 71.2 47.05 0.00
Vicksburg 2021-27-10 13:45 71.2 72.30 0.00 5.42 ESE
Back to Top